Aeroporto :
LOGIN :

Iscrizione | Disclaimer

   EN    FR    IT 

 










Sommario :    VFR   VFR Marginale   IFR   IFR Intensivo   IFR Molto Intensivo
Visibilità : 
Base nubi : 
>= 8 km
>= 3000ft
5 / 8 km
1000 / 3000 ft
1500m / 5 km
500 / 1000 ft
800 / 1500m
200 / 500 ft
< 800m
< 200 ft
Simboli :   Temporali  Nebbia  Neve Forte  Precipitazioni Forti  Vento > 20 kt
SIGMETs :   Varie  Temporali  Ghiacco  Turbolenza  Onda orograficha  Ceneri Vulcaniche







- Altitudine del aeroporto : 459 ft
- Codice IATA : CER
- Carte del aeroporto


LFRC - Cherbourg / Maupertus

ULTIMO METAR :
  • 232200Z AUTO 18009KT CAVOK 13/11 Q0994

METARs OBSOLETI :
  • 232130Z AUTO 18008KT 9999 -RA NSC 13/11 Q0994
  • 232100Z AUTO 19007KT 9000 -RA NSC 13/11 Q0995
  • 232030Z AUTO 18008KT 9999 -RA ///TCU 12/10 Q0995
  • 232000Z AUTO 20007KT 9999 -RA ///TCU 12/10 Q0994
  • 231930Z AUTO 10004KT 070V150 CAVOK 13/08 Q0995

TAF TAF LFRC
Valido dal 23 a 15 ore il 24 a 00 ore UTC


231400Z 2315/2324 05010KT CAVOK
PROB30
TEMPO 2315/2324 4000 SHRA BKN050CB
BECMG 2316/2318 VRB03KT
PROB40
TEMPO 2318/2324 VRB15G30KT 3000 TSRAGR
Nessun NOTAM noto per questo aeroporto.
1 SIGMET conosciuto per la FIR Brest (LFRR) :
 
Temporali affogati
LFRR SIGMET 1 VALID 232210/232300 LFPW
LFRR BREST FIR/UIR EMBD TS OBS S OF N4715 AND E OF W00100 TOP FL360 MOV N 15KT NC=



MetMap, La meteo Aeronautica in un colpo d'occhio ! - Copyright ORBIFLY Dicembre 2007 - Disclaimer

ORBIFLY MET'MAP TEAM :

Programmazione e sviluppo : Alexandra Zaïnal
Concezione e sviluppo : Baudouin d'Aumeries
Co-Programmazione e sviluppo : Marc-Olivier Méhu
Supporto tecnico e logistico : Manuel Goepfert
Aiuto per la traduzione : Arnaldo La Scala

Contatto : metmap@orbifly.com




FONTI E CREDITI :

   NOAA